Terminal Aerodrome Forecast
Issued by NWS North Platte, NE

Home | Current Version | Previous Version | Text Only | Print | Product List | Glossary On
Versions: 1 2 3 4 5 6 7 8 9 10 11 12 13
848
FTUS43 KLBF 271130
TAFLBF
TAF
KLBF 271130Z 2712/2812 30007KT P6SM BKN100
     FM271300 VRB06KT P6SM -RA VCTS BKN080CB
     FM271500 VRB06KT P6SM SCT070 BKN200
     FM271800 06010KT P6SM SCT050 BKN200
      TEMPO 2718/2722 -TSRA BKN050CB
     FM272200 07010KT P6SM SCT050 BKN100
      TEMPO 2722/2802 -TSRA BKN050CB=

USA.gov is the U.S. government's official web portal to all federal, state and local government web resources and services.